sensor_id;sensor_type;location;lat;lon;timestamp;pressure;altitude;pressure_sealevel;temperature;humidity
71976;BME280;68326;52.124;5.424;2023-05-23T00:01:00;101930.38;;;15.00;91.15
71976;BME280;68326;52.124;5.424;2023-05-23T00:03:27;101939.84;;;15.02;91.15
71976;BME280;68326;52.124;5.424;2023-05-23T00:05:54;101940.94;;;14.98;91.09
71976;BME280;68326;52.124;5.424;2023-05-23T00:08:22;101942.81;;;14.96;90.63
71976;BME280;68326;52.124;5.424;2023-05-23T00:10:48;101941.16;;;14.94;92.33
71976;BME280;68326;52.124;5.424;2023-05-23T00:13:15;101943.78;;;14.94;91.72
71976;BME280;68326;52.124;5.424;2023-05-23T00:15:42;101941.16;;;14.94;91.47
71976;BME280;68326;52.124;5.424;2023-05-23T00:18:10;101942.09;;;14.93;91.96
71976;BME280;68326;52.124;5.424;2023-05-23T00:20:37;101935.09;;;14.93;91.53
71976;BME280;68326;52.124;5.424;2023-05-23T00:23:11;101940.50;;;14.90;91.70
71976;BME280;68326;52.124;5.424;2023-05-23T00:25:44;101942.72;;;14.80;92.79
71976;BME280;68326;52.124;5.424;2023-05-23T00:28:18;101945.81;;;14.71;92.41
71976;BME280;68326;52.124;5.424;2023-05-23T00:30:44;101949.44;;;14.68;93.13
71976;BME280;68326;52.124;5.424;2023-05-23T00:33:11;101958.38;;;14.64;93.00
71976;BME280;68326;52.124;5.424;2023-05-23T00:35:42;101954.22;;;14.60;94.51
71976;BME280;68326;52.124;5.424;2023-05-23T00:38:09;101958.88;;;14.54;94.61
71976;BME280;68326;52.124;5.424;2023-05-23T00:40:36;101960.00;;;14.48;93.50
71976;BME280;68326;52.124;5.424;2023-05-23T00:43:03;101963.78;;;14.42;94.63
71976;BME280;68326;52.124;5.424;2023-05-23T00:45:30;101959.59;;;14.38;94.53
71976;BME280;68326;52.124;5.424;2023-05-23T00:47:57;101963.44;;;14.31;95.44
71976;BME280;68326;52.124;5.424;2023-05-23T00:50:26;101964.50;;;14.27;96.42
71976;BME280;68326;52.124;5.424;2023-05-23T00:52:58;101966.66;;;14.19;96.30
71976;BME280;68326;52.124;5.424;2023-05-23T00:55:25;101968.72;;;14.12;96.14
71976;BME280;68326;52.124;5.424;2023-05-23T00:57:53;101973.22;;;14.08;96.35
71976;BME280;68326;52.124;5.424;2023-05-23T01:00:24;101971.41;;;14.11;96.38
71976;BME280;68326;52.124;5.424;2023-05-23T01:02:51;101972.16;;;14.13;97.59
71976;BME280;68326;52.124;5.424;2023-05-23T01:05:19;101966.94;;;14.13;96.32
71976;BME280;68326;52.124;5.424;2023-05-23T01:07:48;101973.09;;;14.12;96.36
71976;BME280;68326;52.124;5.424;2023-05-23T01:10:21;101972.56;;;14.05;97.58
71976;BME280;68326;52.124;5.424;2023-05-23T01:13:32;101967.16;;;14.08;96.97
71976;BME280;68326;52.124;5.424;2023-05-23T01:16:12;101961.97;;;14.06;96.75
71976;BME280;68326;52.124;5.424;2023-05-23T01:19:05;101966.53;;;14.03;96.95
71976;BME280;68326;52.124;5.424;2023-05-23T01:21:35;101966.66;;;14.00;96.98
71976;BME280;68326;52.124;5.424;2023-05-23T01:24:37;101964.53;;;14.08;97.12
71976;BME280;68326;52.124;5.424;2023-05-23T01:28:28;101968.00;;;14.08;96.21
71976;BME280;68326;52.124;5.424;2023-05-23T01:30:24;101968.94;;;14.07;96.58
71976;BME280;68326;52.124;5.424;2023-05-23T01:32:53;101974.22;;;14.06;96.18
71976;BME280;68326;52.124;5.424;2023-05-23T01:35:25;101966.09;;;14.12;97.55
71976;BME280;68326;52.124;5.424;2023-05-23T01:37:56;101960.63;;;14.17;97.21
71976;BME280;68326;52.124;5.424;2023-05-23T01:40:24;101965.81;;;14.18;96.44
71976;BME280;68326;52.124;5.424;2023-05-23T01:42:52;101963.13;;;14.20;95.82
71976;BME280;68326;52.124;5.424;2023-05-23T01:45:20;101964.97;;;14.18;97.07
71976;BME280;68326;52.124;5.424;2023-05-23T01:47:49;101966.59;;;14.20;96.38
71976;BME280;68326;52.124;5.424;2023-05-23T01:50:16;101961.47;;;14.17;95.99
71976;BME280;68326;52.124;5.424;2023-05-23T01:52:44;101973.72;;;14.17;96.68
71976;BME280;68326;52.124;5.424;2023-05-23T01:55:13;101965.03;;;14.16;96.29
71976;BME280;68326;52.124;5.424;2023-05-23T01:57:43;101973.72;;;14.17;97.23
71976;BME280;68326;52.124;5.424;2023-05-23T02:00:11;101973.78;;;14.15;95.37
71976;BME280;68326;52.124;5.424;2023-05-23T02:02:38;101969.44;;;14.16;95.61
71976;BME280;68326;52.124;5.424;2023-05-23T02:05:05;101984.06;;;14.20;95.92
71976;BME280;68326;52.124;5.424;2023-05-23T02:07:31;101984.06;;;14.20;95.44
71976;BME280;68326;52.124;5.424;2023-05-23T02:09:58;101981.75;;;14.14;95.41
71976;BME280;68326;52.124;5.424;2023-05-23T02:12:24;101996.59;;;14.13;96.47
71976;BME280;68326;52.124;5.424;2023-05-23T02:14:53;101994.81;;;14.14;96.34
71976;BME280;68326;52.124;5.424;2023-05-23T02:17:20;101993.09;;;14.13;95.62
71976;BME280;68326;52.124;5.424;2023-05-23T02:19:50;102000.91;;;14.14;96.07
71976;BME280;68326;52.124;5.424;2023-05-23T02:22:16;101995.81;;;14.11;95.06
71976;BME280;68326;52.124;5.424;2023-05-23T02:24:42;101990.66;;;14.10;95.43
71976;BME280;68326;52.124;5.424;2023-05-23T02:27:09;101999.56;;;14.05;94.77
71976;BME280;68326;52.124;5.424;2023-05-23T02:29:35;101995.22;;;14.04;95.76
71976;BME280;68326;52.124;5.424;2023-05-23T02:32:02;102001.34;;;14.05;96.03
71976;BME280;68326;52.124;5.424;2023-05-23T02:34:28;101997.94;;;14.03;95.56
71976;BME280;68326;52.124;5.424;2023-05-23T02:36:55;102010.09;;;14.04;95.82
71976;BME280;68326;52.124;5.424;2023-05-23T02:39:22;101996.88;;;14.07;95.71
71976;BME280;68326;52.124;5.424;2023-05-23T02:41:48;102003.03;;;14.06;95.51
71976;BME280;68326;52.124;5.424;2023-05-23T02:44:14;102002.97;;;14.07;95.93
71976;BME280;68326;52.124;5.424;2023-05-23T02:46:41;102007.19;;;14.10;96.21
71976;BME280;68326;52.124;5.424;2023-05-23T02:49:08;102007.19;;;14.10;95.45
71976;BME280;68326;52.124;5.424;2023-05-23T02:51:35;102007.13;;;14.12;95.42
71976;BME280;68326;52.124;5.424;2023-05-23T02:54:01;102014.16;;;14.11;94.82
71976;BME280;68326;52.124;5.424;2023-05-23T02:56:28;102017.53;;;14.13;95.28
71976;BME280;68326;52.124;5.424;2023-05-23T02:58:54;102009.59;;;14.15;94.26
71976;BME280;68326;52.124;5.424;2023-05-23T03:01:21;102019.00;;;14.19;93.74
71976;BME280;68326;52.124;5.424;2023-05-23T03:03:48;102016.38;;;14.19;94.36
71976;BME280;68326;52.124;5.424;2023-05-23T03:06:15;102013.66;;;14.22;93.58
71976;BME280;68326;52.124;5.424;2023-05-23T03:08:42;102014.41;;;14.24;93.06
71976;BME280;68326;52.124;5.424;2023-05-23T03:11:09;102014.47;;;14.22;93.01
71976;BME280;68326;52.124;5.424;2023-05-23T03:13:35;102006.91;;;14.16;93.34
71976;BME280;68326;52.124;5.424;2023-05-23T03:16:01;102007.75;;;14.17;93.63
71976;BME280;68326;52.124;5.424;2023-05-23T03:18:28;102013.00;;;14.17;93.75
71976;BME280;68326;52.124;5.424;2023-05-23T03:20:54;102020.91;;;14.15;93.88
71976;BME280;68326;52.124;5.424;2023-05-23T03:23:21;102013.28;;;14.11;93.08
71976;BME280;68326;52.124;5.424;2023-05-23T03:25:48;102021.13;;;14.11;92.98
71976;BME280;68326;52.124;5.424;2023-05-23T03:28:14;102015.13;;;14.08;93.39
71976;BME280;68326;52.124;5.424;2023-05-23T03:30:41;102024.91;;;14.05;93.62
71976;BME280;68326;52.124;5.424;2023-05-23T03:33:07;102025.19;;;13.99;93.44
71976;BME280;68326;52.124;5.424;2023-05-23T03:35:34;102020.78;;;13.99;94.26
71976;BME280;68326;52.124;5.424;2023-05-23T03:38:00;102024.34;;;13.98;92.83
71976;BME280;68326;52.124;5.424;2023-05-23T03:40:27;102023.63;;;13.95;93.00
71976;BME280;68326;52.124;5.424;2023-05-23T03:43:04;102031.53;;;13.93;92.92
71976;BME280;68326;52.124;5.424;2023-05-23T03:45:31;102035.34;;;13.86;92.88
71976;BME280;68326;52.124;5.424;2023-05-23T03:47:59;102031.03;;;13.85;93.67
71976;BME280;68326;52.124;5.424;2023-05-23T03:50:26;102035.56;;;13.81;93.09
71976;BME280;68326;52.124;5.424;2023-05-23T03:52:53;102038.34;;;13.77;93.90
71976;BME280;68326;52.124;5.424;2023-05-23T03:55:20;102046.22;;;13.77;94.15
71976;BME280;68326;52.124;5.424;2023-05-23T03:57:48;102042.81;;;13.75;93.71
71976;BME280;68326;52.124;5.424;2023-05-23T04:00:14;102042.19;;;13.70;93.62
71976;BME280;68326;52.124;5.424;2023-05-23T04:02:41;102046.63;;;13.68;93.95
71976;BME280;68326;52.124;5.424;2023-05-23T04:05:10;102054.41;;;13.69;93.38
71976;BME280;68326;52.124;5.424;2023-05-23T04:07:37;102059.72;;;13.68;93.48
71976;BME280;68326;52.124;5.424;2023-05-23T04:10:04;102054.69;;;13.63;92.98
71976;BME280;68326;52.124;5.424;2023-05-23T04:12:31;102052.97;;;13.62;94.19
71976;BME280;68326;52.124;5.424;2023-05-23T04:14:57;102064.16;;;13.65;94.48
71976;BME280;68326;52.124;5.424;2023-05-23T04:17:24;102063.38;;;13.63;94.33
71976;BME280;68326;52.124;5.424;2023-05-23T04:19:51;102060.91;;;13.60;94.04
71976;BME280;68326;52.124;5.424;2023-05-23T04:22:17;102069.59;;;13.61;94.74
71976;BME280;68326;52.124;5.424;2023-05-23T04:24:44;102069.78;;;13.56;93.70
71976;BME280;68326;52.124;5.424;2023-05-23T04:27:10;102075.03;;;13.56;95.23
71976;BME280;68326;52.124;5.424;2023-05-23T04:29:37;102077.50;;;13.59;94.31
71976;BME280;68326;52.124;5.424;2023-05-23T04:32:03;102070.50;;;13.60;92.62
71976;BME280;68326;52.124;5.424;2023-05-23T04:34:31;102083.91;;;13.52;92.84
71976;BME280;68326;52.124;5.424;2023-05-23T04:36:59;102088.38;;;13.50;93.08
71976;BME280;68326;52.124;5.424;2023-05-23T04:39:29;102087.31;;;13.54;93.95
71976;BME280;68326;52.124;5.424;2023-05-23T04:41:55;102093.34;;;13.56;92.51
71976;BME280;68326;52.124;5.424;2023-05-23T04:44:22;102089.00;;;13.55;92.37
71976;BME280;68326;52.124;5.424;2023-05-23T04:46:48;102090.13;;;13.50;93.05
71976;BME280;68326;52.124;5.424;2023-05-23T04:49:15;102094.56;;;13.48;92.34
71976;BME280;68326;52.124;5.424;2023-05-23T04:51:42;102096.31;;;13.47;93.33
71976;BME280;68326;52.124;5.424;2023-05-23T04:54:09;102091.38;;;13.41;93.14
71976;BME280;68326;52.124;5.424;2023-05-23T04:56:35;102109.75;;;13.39;92.73
71976;BME280;68326;52.124;5.424;2023-05-23T04:59:02;102101.94;;;13.38;92.71
71976;BME280;68326;52.124;5.424;2023-05-23T05:01:28;102117.63;;;13.38;92.41
71976;BME280;68326;52.124;5.424;2023-05-23T05:03:55;102126.53;;;13.34;92.88
71976;BME280;68326;52.124;5.424;2023-05-23T05:06:22;102128.47;;;13.29;91.54
71976;BME280;68326;52.124;5.424;2023-05-23T05:08:48;102130.47;;;13.22;91.07
71976;BME280;68326;52.124;5.424;2023-05-23T05:11:15;102125.34;;;13.19;92.05
71976;BME280;68326;52.124;5.424;2023-05-23T05:13:41;102140.97;;;13.20;91.23
71976;BME280;68326;52.124;5.424;2023-05-23T05:16:08;102137.69;;;13.15;91.12
71976;BME280;68326;52.124;5.424;2023-05-23T05:18:35;102140.44;;;13.12;91.04
71976;BME280;68326;52.124;5.424;2023-05-23T05:21:01;102143.28;;;13.06;90.31
71976;BME280;68326;52.124;5.424;2023-05-23T05:23:30;102159.09;;;13.03;88.46
71976;BME280;68326;52.124;5.424;2023-05-23T05:25:56;102160.94;;;13.01;89.18
71976;BME280;68326;52.124;5.424;2023-05-23T05:28:23;102157.19;;;13.06;89.39
71976;BME280;68326;52.124;5.424;2023-05-23T05:30:50;102165.19;;;13.03;87.64
71976;BME280;68326;52.124;5.424;2023-05-23T05:33:20;102168.63;;;13.04;86.63
71976;BME280;68326;52.124;5.424;2023-05-23T05:35:50;102167.78;;;13.03;86.86
71976;BME280;68326;52.124;5.424;2023-05-23T05:38:17;102171.44;;;12.99;86.78
71976;BME280;68326;52.124;5.424;2023-05-23T05:40:43;102176.59;;;13.01;87.08
71976;BME280;68326;52.124;5.424;2023-05-23T05:43:10;102176.28;;;13.09;87.56
71976;BME280;68326;52.124;5.424;2023-05-23T05:45:37;102179.03;;;13.05;85.29
71976;BME280;68326;52.124;5.424;2023-05-23T05:48:03;102187.84;;;13.03;85.87
71976;BME280;68326;52.124;5.424;2023-05-23T05:50:30;102182.69;;;13.01;84.80
71976;BME280;68326;52.124;5.424;2023-05-23T05:52:56;102191.25;;;13.05;84.96
71976;BME280;68326;52.124;5.424;2023-05-23T05:55:23;102189.25;;;13.12;85.73
71976;BME280;68326;52.124;5.424;2023-05-23T05:57:49;102182.31;;;13.11;85.92
71976;BME280;68326;52.124;5.424;2023-05-23T06:00:16;102193.44;;;13.16;86.52
71976;BME280;68326;52.124;5.424;2023-05-23T06:02:44;102192.66;;;13.14;84.12
71976;BME280;68326;52.124;5.424;2023-05-23T06:05:17;102199.69;;;13.12;84.06
71976;BME280;68326;52.124;5.424;2023-05-23T06:07:43;102212.88;;;13.09;82.79
71976;BME280;68326;52.124;5.424;2023-05-23T06:10:10;102200.91;;;13.03;82.70
71976;BME280;68326;52.124;5.424;2023-05-23T06:12:39;102207.03;;;13.02;82.40
71976;BME280;68326;52.124;5.424;2023-05-23T06:15:06;102219.31;;;13.00;81.35
71976;BME280;68326;52.124;5.424;2023-05-23T06:17:33;102207.44;;;12.91;81.45
71976;BME280;68326;52.124;5.424;2023-05-23T06:20:00;102217.84;;;12.93;81.22
71976;BME280;68326;52.124;5.424;2023-05-23T06:22:26;102217.06;;;12.91;81.71
71976;BME280;68326;52.124;5.424;2023-05-23T06:24:53;102217.13;;;12.89;82.30
71976;BME280;68326;52.124;5.424;2023-05-23T06:27:19;102214.31;;;12.94;82.34
71976;BME280;68326;52.124;5.424;2023-05-23T06:29:46;102212.69;;;12.91;82.50
71976;BME280;68326;52.124;5.424;2023-05-23T06:32:12;102217.06;;;12.91;82.91
71976;BME280;68326;52.124;5.424;2023-05-23T06:34:39;102218.66;;;12.95;83.46
71976;BME280;68326;52.124;5.424;2023-05-23T06:37:05;102211.84;;;12.91;83.54
71976;BME280;68326;52.124;5.424;2023-05-23T06:39:32;102223.25;;;12.88;82.90
71976;BME280;68326;52.124;5.424;2023-05-23T06:41:58;102210.13;;;12.90;83.58
71976;BME280;68326;52.124;5.424;2023-05-23T06:44:26;102217.00;;;12.92;84.96
71976;BME280;68326;52.124;5.424;2023-05-23T06:46:52;102220.34;;;12.96;85.40
71976;BME280;68326;52.124;5.424;2023-05-23T06:49:24;102228.06;;;12.99;84.12
71976;BME280;68326;52.124;5.424;2023-05-23T06:51:51;102223.81;;;12.96;83.56
71976;BME280;68326;52.124;5.424;2023-05-23T06:54:18;102223.03;;;12.94;84.13
71976;BME280;68326;52.124;5.424;2023-05-23T06:56:44;102231.75;;;12.93;84.71
71976;BME280;68326;52.124;5.424;2023-05-23T06:59:11;102233.63;;;12.90;84.62
71976;BME280;68326;52.124;5.424;2023-05-23T07:01:38;102230.00;;;12.94;85.04
71976;BME280;68326;52.124;5.424;2023-05-23T07:04:05;102235.13;;;12.97;85.52
71976;BME280;68326;52.124;5.424;2023-05-23T07:06:31;102235.91;;;12.99;86.05
71976;BME280;68326;52.124;5.424;2023-05-23T07:08:58;102241.25;;;12.96;85.57
71976;BME280;68326;52.124;5.424;2023-05-23T07:11:24;102233.31;;;12.99;85.94
71976;BME280;68326;52.124;5.424;2023-05-23T07:13:51;102238.16;;;13.08;86.20
71976;BME280;68326;52.124;5.424;2023-05-23T07:16:18;102251.19;;;13.10;86.85
71976;BME280;68326;52.124;5.424;2023-05-23T07:18:44;102267.53;;;13.15;86.67
71976;BME280;68326;52.124;5.424;2023-05-23T07:21:11;102260.66;;;13.12;85.92
71976;BME280;68326;52.124;5.424;2023-05-23T07:23:39;102255.47;;;13.11;86.15
71976;BME280;68326;52.124;5.424;2023-05-23T07:26:06;102268.88;;;13.03;84.79
71976;BME280;68326;52.124;5.424;2023-05-23T07:28:35;102256.91;;;12.96;83.28
71976;BME280;68326;52.124;5.424;2023-05-23T07:31:02;102260.41;;;12.96;83.20
71976;BME280;68326;52.124;5.424;2023-05-23T07:33:29;102264.72;;;12.97;82.91
71976;BME280;68326;52.124;5.424;2023-05-23T07:35:56;102271.41;;;13.04;81.39
71976;BME280;68326;52.124;5.424;2023-05-23T07:38:22;102260.66;;;13.12;80.25
71976;BME280;68326;52.124;5.424;2023-05-23T07:40:48;102260.53;;;13.15;78.77
71976;BME280;68326;52.124;5.424;2023-05-23T07:43:35;102260.38;;;13.20;78.88
71976;BME280;68326;52.124;5.424;2023-05-23T07:46:01;102267.34;;;13.19;78.56
71976;BME280;68326;52.124;5.424;2023-05-23T07:48:28;102264.81;;;13.18;78.11
71976;BME280;68326;52.124;5.424;2023-05-23T07:50:54;102261.28;;;13.19;77.16
71976;BME280;68326;52.124;5.424;2023-05-23T07:53:21;102273.38;;;13.21;75.62
71976;BME280;68326;52.124;5.424;2023-05-23T07:55:48;102276.78;;;13.23;75.19
71976;BME280;68326;52.124;5.424;2023-05-23T07:58:14;102274.81;;;13.30;75.17
71976;BME280;68326;52.124;5.424;2023-05-23T08:00:41;102267.59;;;13.37;75.04
71976;BME280;68326;52.124;5.424;2023-05-23T08:03:09;102283.94;;;13.42;76.50
71976;BME280;68326;52.124;5.424;2023-05-23T08:05:36;102280.16;;;13.49;75.24
71976;BME280;68326;52.124;5.424;2023-05-23T08:08:03;102274.03;;;13.50;75.83
71976;BME280;68326;52.124;5.424;2023-05-23T08:10:29;102277.41;;;13.54;74.66
71976;BME280;68326;52.124;5.424;2023-05-23T08:12:56;102275.38;;;13.60;75.26
71976;BME280;68326;52.124;5.424;2023-05-23T08:15:25;102282.09;;;13.66;74.68
71976;BME280;68326;52.124;5.424;2023-05-23T08:17:52;102281.25;;;13.65;73.88
71976;BME280;68326;52.124;5.424;2023-05-23T08:20:22;102283.22;;;13.60;73.18
71976;BME280;68326;52.124;5.424;2023-05-23T08:23:00;102288.38;;;13.62;73.44
71976;BME280;68326;52.124;5.424;2023-05-23T08:25:27;102279.50;;;13.66;74.49
71976;BME280;68326;52.124;5.424;2023-05-23T08:27:58;102274.69;;;13.55;72.88
71976;BME280;68326;52.124;5.424;2023-05-23T08:30:25;102286.31;;;13.48;73.60
71976;BME280;68326;52.124;5.424;2023-05-23T08:32:53;102297.53;;;13.52;73.85
71976;BME280;68326;52.124;5.424;2023-05-23T08:35:21;102304.81;;;13.65;73.77
71976;BME280;68326;52.124;5.424;2023-05-23T08:37:47;102297.63;;;13.71;74.60
71976;BME280;68326;52.124;5.424;2023-05-23T08:40:19;102310.59;;;13.74;73.33
71976;BME280;68326;52.124;5.424;2023-05-23T08:42:47;102305.53;;;13.69;72.42
71976;BME280;68326;52.124;5.424;2023-05-23T08:45:15;102310.09;;;13.64;74.78
71976;BME280;68326;52.124;5.424;2023-05-23T08:47:42;102317.78;;;13.69;73.49
71976;BME280;68326;52.124;5.424;2023-05-23T08:50:15;102306.34;;;13.71;72.03
71976;BME280;68326;52.124;5.424;2023-05-23T08:52:56;102315.03;;;13.72;72.29
71976;BME280;68326;52.124;5.424;2023-05-23T08:55:23;102315.78;;;13.75;72.81
71976;BME280;68326;52.124;5.424;2023-05-23T08:57:53;102313.84;;;14.01;71.73
71976;BME280;68326;52.124;5.424;2023-05-23T09:00:19;102325.72;;;14.10;70.64
71976;BME280;68326;52.124;5.424;2023-05-23T09:02:47;102329.97;;;14.12;71.71
71976;BME280;68326;52.124;5.424;2023-05-23T09:05:14;102324.88;;;14.09;71.21
71976;BME280;68326;52.124;5.424;2023-05-23T09:07:43;102331.00;;;14.08;70.14
71976;BME280;68326;52.124;5.424;2023-05-23T09:10:13;102334.66;;;14.04;71.53
71976;BME280;68326;52.124;5.424;2023-05-23T09:12:43;102321.63;;;14.02;70.65
71976;BME280;68326;52.124;5.424;2023-05-23T09:15:10;102328.56;;;14.03;68.33
71976;BME280;68326;52.124;5.424;2023-05-23T09:17:37;102327.19;;;14.15;68.82
71976;BME280;68326;52.124;5.424;2023-05-23T09:20:12;102333.63;;;14.49;68.71
71976;BME280;68326;52.124;5.424;2023-05-23T09:22:40;102338.31;;;14.83;66.79
71976;BME280;68326;52.124;5.424;2023-05-23T09:25:06;102339.03;;;15.25;65.33
71976;BME280;68326;52.124;5.424;2023-05-23T09:27:33;102346.13;;;15.23;65.74
71976;BME280;68326;52.124;5.424;2023-05-23T09:30:08;102341.44;;;15.29;66.16
71976;BME280;68326;52.124;5.424;2023-05-23T09:32:35;102335.41;;;15.46;64.95
71976;BME280;68326;52.124;5.424;2023-05-23T09:35:03;102339.03;;;15.82;64.21
71976;BME280;68326;52.124;5.424;2023-05-23T09:37:34;102347.63;;;15.66;64.47
71976;BME280;68326;52.124;5.424;2023-05-23T09:40:06;102338.03;;;15.46;65.66
71976;BME280;68326;52.124;5.424;2023-05-23T09:42:40;102348.13;;;15.56;65.48
71976;BME280;68326;52.124;5.424;2023-05-23T09:45:08;102336.91;;;15.52;63.72
71976;BME280;68326;52.124;5.424;2023-05-23T09:47:34;102340.75;;;15.45;64.77
71976;BME280;68326;52.124;5.424;2023-05-23T09:50:02;102344.63;;;15.55;64.00
71976;BME280;68326;52.124;5.424;2023-05-23T09:52:37;102345.91;;;15.46;64.46
71976;BME280;68326;52.124;5.424;2023-05-23T09:55:05;102342.59;;;15.43;61.68
71976;BME280;68326;52.124;5.424;2023-05-23T09:57:40;102340.66;;;15.65;61.71
71976;BME280;68326;52.124;5.424;2023-05-23T10:00:11;102351.44;;;15.78;61.19
71976;BME280;68326;52.124;5.424;2023-05-23T10:03:11;102351.66;;;16.10;61.96
71976;BME280;68326;52.124;5.424;2023-05-23T10:05:46;102360.66;;;16.04;61.67
71976;BME280;68326;52.124;5.424;2023-05-23T10:08:35;102365.13;;;15.66;62.84
71976;BME280;68326;52.124;5.424;2023-05-23T10:13:44;102355.69;;;15.62;60.97
71976;BME280;68326;52.124;5.424;2023-05-23T10:16:14;102360.94;;;15.62;61.14
71976;BME280;68326;52.124;5.424;2023-05-23T10:18:44;102362.19;;;15.91;59.91
71976;BME280;68326;52.124;5.424;2023-05-23T10:21:18;102362.53;;;16.02;59.85
71976;BME280;68326;52.124;5.424;2023-05-23T10:23:46;102360.81;;;15.84;61.76
71976;BME280;68326;52.124;5.424;2023-05-23T10:26:14;102359.97;;;15.64;61.66
71976;BME280;68326;52.124;5.424;2023-05-23T10:28:40;102372.94;;;15.48;64.19
71976;BME280;68326;52.124;5.424;2023-05-23T10:31:07;102371.75;;;15.37;64.73
71976;BME280;68326;52.124;5.424;2023-05-23T10:33:39;102374.56;;;15.51;63.87
71976;BME280;68326;52.124;5.424;2023-05-23T10:36:10;102370.81;;;15.76;61.99
71976;BME280;68326;52.124;5.424;2023-05-23T10:38:49;102373.06;;;16.02;62.42
71976;BME280;68326;52.124;5.424;2023-05-23T10:41:22;102370.63;;;15.98;62.02
71976;BME280;68326;52.124;5.424;2023-05-23T10:44:11;102373.97;;;16.19;61.77
71976;BME280;68326;52.124;5.424;2023-05-23T10:46:55;102372.56;;;15.94;61.48
71976;BME280;68326;52.124;5.424;2023-05-23T10:52:08;102377.91;;;15.55;61.70
71976;BME280;68326;52.124;5.424;2023-05-23T10:54:42;102380.22;;;15.61;63.32
71976;BME280;68326;52.124;5.424;2023-05-23T10:57:10;102377.56;;;15.62;61.77
71976;BME280;68326;52.124;5.424;2023-05-23T10:59:38;102387.00;;;15.47;63.38
71976;BME280;68326;52.124;5.424;2023-05-23T11:02:12;102383.88;;;15.77;63.19
71976;BME280;68326;52.124;5.424;2023-05-23T11:04:40;102381.53;;;16.07;61.62
71976;BME280;68326;52.124;5.424;2023-05-23T11:07:30;102372.94;;;16.04;61.84
71976;BME280;68326;52.124;5.424;2023-05-23T11:10:23;102383.47;;;16.04;61.07
71976;BME280;68326;52.124;5.424;2023-05-23T11:13:04;102392.38;;;15.82;62.35
71976;BME280;68326;52.124;5.424;2023-05-23T11:15:40;102388.66;;;16.23;60.51
71976;BME280;68326;52.124;5.424;2023-05-23T11:18:07;102363.94;;;16.44;58.17
71976;BME280;68326;52.124;5.424;2023-05-23T11:20:36;102368.13;;;16.83;57.14
71976;BME280;68326;52.124;5.424;2023-05-23T11:23:06;102370.63;;;16.85;56.35
71976;BME280;68326;52.124;5.424;2023-05-23T11:25:44;102377.41;;;16.56;57.53
71976;BME280;68326;52.124;5.424;2023-05-23T11:28:13;102378.84;;;16.26;55.96
71976;BME280;68326;52.124;5.424;2023-05-23T11:30:39;102382.94;;;16.15;59.29
71976;BME280;68326;52.124;5.424;2023-05-23T11:33:09;102386.91;;;16.04;56.70
71976;BME280;68326;52.124;5.424;2023-05-23T11:35:43;102391.13;;;15.89;57.36
71976;BME280;68326;52.124;5.424;2023-05-23T11:38:10;102389.28;;;15.92;59.87
71976;BME280;68326;52.124;5.424;2023-05-23T11:40:39;102382.09;;;16.14;59.21
71976;BME280;68326;52.124;5.424;2023-05-23T11:43:09;102394.69;;;16.25;58.77
71976;BME280;68326;52.124;5.424;2023-05-23T11:45:37;102389.22;;;15.93;58.83
71976;BME280;68326;52.124;5.424;2023-05-23T11:48:08;102396.19;;;15.94;58.55
71976;BME280;68326;52.124;5.424;2023-05-23T11:50:52;102390.31;;;16.06;59.10
71976;BME280;68326;52.124;5.424;2023-05-23T11:53:20;102389.66;;;16.20;59.28
71976;BME280;68326;52.124;5.424;2023-05-23T11:58:16;102392.34;;;16.01;60.16
71976;BME280;68326;52.124;5.424;2023-05-23T12:00:46;102398.56;;;15.81;59.61
71976;BME280;68326;52.124;5.424;2023-05-23T12:03:12;102404.72;;;15.80;59.77
71976;BME280;68326;52.124;5.424;2023-05-23T12:05:42;102401.72;;;16.07;59.08
71976;BME280;68326;52.124;5.424;2023-05-23T12:08:10;102405.94;;;16.09;57.44
71976;BME280;68326;52.124;5.424;2023-05-23T12:10:48;102406.97;;;16.07;58.47
71976;BME280;68326;52.124;5.424;2023-05-23T12:13:14;102398.94;;;15.91;57.78
71976;BME280;68326;52.124;5.424;2023-05-23T12:15:41;102395.56;;;16.06;58.38
71976;BME280;68326;52.124;5.424;2023-05-23T12:18:07;102398.31;;;16.40;55.51
71976;BME280;68326;52.124;5.424;2023-05-23T12:20:34;102399.72;;;16.29;54.00
71976;BME280;68326;52.124;5.424;2023-05-23T12:23:04;102403.38;;;16.08;54.78
71976;BME280;68326;52.124;5.424;2023-05-23T12:25:41;102411.06;;;15.94;56.05
71976;BME280;68326;52.124;5.424;2023-05-23T12:28:08;102406.66;;;16.13;56.51
71976;BME280;68326;52.124;5.424;2023-05-23T12:30:42;102404.59;;;16.37;57.67
71976;BME280;68326;52.124;5.424;2023-05-23T12:33:09;102401.03;;;16.38;56.50
71976;BME280;68326;52.124;5.424;2023-05-23T12:35:41;102404.19;;;16.27;57.48
71976;BME280;68326;52.124;5.424;2023-05-23T12:38:08;102414.91;;;16.05;56.55
71976;BME280;68326;52.124;5.424;2023-05-23T12:40:35;102411.00;;;15.95;57.18
71976;BME280;68326;52.124;5.424;2023-05-23T12:43:01;102412.78;;;15.95;56.93
71976;BME280;68326;52.124;5.424;2023-05-23T12:45:32;102408.66;;;16.25;55.02
71976;BME280;68326;52.124;5.424;2023-05-23T12:47:59;102412.59;;;16.17;55.36
71976;BME280;68326;52.124;5.424;2023-05-23T12:50:27;102416.47;;;16.09;55.98
71976;BME280;68326;52.124;5.424;2023-05-23T12:52:53;102416.13;;;15.98;56.95
71976;BME280;68326;52.124;5.424;2023-05-23T12:55:21;102417.50;;;15.88;58.23
71976;BME280;68326;52.124;5.424;2023-05-23T12:57:47;102427.19;;;15.67;58.12
71976;BME280;68326;52.124;5.424;2023-05-23T13:00:14;102425.28;;;15.52;60.50
71976;BME280;68326;52.124;5.424;2023-05-23T13:02:40;102412.78;;;15.57;58.87
71976;BME280;68326;52.124;5.424;2023-05-23T13:05:07;102413.09;;;15.88;57.30
71976;BME280;68326;52.124;5.424;2023-05-23T13:07:34;102410.69;;;15.84;57.04